Hatchel, Texas
Current Conditions -  °F | °C
As of 6:58 PM on Sunday 23 Nov 2014 (Local Time) from KDYS Reporting Station
Clear Clear  
Wind Chill: 55°   Ceiling: Unl
Heat Index: 55°   Visibility: 10mi
Dew Point: 35°   Wind: 21mph
Humidity: 48%   Direction: 360°N
Pressure: 29.76"   Gusts: 33mph
Location:  31.975°N, 99.9034°W
Report Text: KDYS 240058Z AUTO 36018G29KT 10SM CLR 13/02 A2976 RMK AO2 PK WND 35029/19 CIG 120 RWY16 PRESRR SLP067 T01260018 $
Loading
Personal Weather Stations






























Interactive Weather Map New forecast layout! Learn more

10-Day Weather Forecast

Advertisements
Track Severe Weather on mobile